Time,TemperatureF,DewpointF,PressureIn,WindDirection,WindDirectionDegrees,WindSpeedMPH,WindSpeedGustMPH,Humidity,HourlyPrecipIn,Conditions,Clouds,dailyrainin,SolarRadiationWatts/m^2,SoftwareType,DateUTC
2013-04-15 00:03:00,54.0,49.0,-100.00,SE,136,6.0,12.0,83,0.00,,,0.05,0.000000,,2013-04-15 04:03:00,
2013-04-15 00:33:00,55.0,49.0,-100.00,SE,134,5.0,12.0,79,0.00,,,0.05,0.000000,,2013-04-15 04:33:00,
2013-04-15 00:43:00,55.0,49.0,-100.00,SE,134,5.0,12.0,79,0.00,,,0.05,0.000000,,2013-04-15 04:43:00,
2013-04-15 00:53:00,55.0,49.0,-100.00,SE,134,5.0,12.0,79,0.00,,,0.05,0.000000,,2013-04-15 04:53:00,
2013-04-15 01:03:00,55.0,49.0,-100.00,SE,134,5.0,12.0,79,0.00,,,0.05,0.000000,,2013-04-15 05:03:00,
2013-04-15 01:33:00,55.0,49.0,-100.00,SSE,159,3.0,12.0,81,0.00,,,0.05,0.000000,,2013-04-15 05:33:00,
2013-04-15 01:43:00,55.0,49.0,-100.00,SSE,159,3.0,12.0,81,0.00,,,0.05,0.000000,,2013-04-15 05:43:00,
2013-04-15 01:53:00,55.0,49.0,-100.00,SSE,159,3.0,12.0,81,0.00,,,0.05,0.000000,,2013-04-15 05:53:00,
2013-04-15 02:02:00,55.0,49.0,-100.00,SSE,159,3.0,12.0,81,0.00,,,0.05,0.000000,,2013-04-15 06:02:00,
2013-04-15 02:34:00,54.0,50.0,-100.00,South,169,2.0,6.0,85,0.00,,,0.05,0.000000,,2013-04-15 06:34:00,
2013-04-15 02:43:00,54.0,50.0,-100.00,South,169,2.0,6.0,85,0.00,,,0.05,0.000000,,2013-04-15 06:43:00,
2013-04-15 02:53:00,54.0,50.0,-100.00,South,169,2.0,6.0,85,0.00,,,0.05,0.000000,,2013-04-15 06:53:00,
2013-04-15 03:03:00,54.0,50.0,-100.00,South,169,2.0,6.0,85,0.00,,,0.05,0.000000,,2013-04-15 07:03:00,
2013-04-15 03:43:00,54.0,51.0,-100.00,SE,134,3.0,6.0,88,0.00,,,0.05,0.000000,,2013-04-15 07:43:00,
2013-04-15 03:54:00,54.0,51.0,-100.00,SE,134,3.0,6.0,88,0.00,,,0.05,0.000000,,2013-04-15 07:54:00,
2013-04-15 04:03:00,54.0,51.0,-100.00,SE,134,3.0,6.0,88,0.00,,,0.05,0.000000,,2013-04-15 08:03:00,
2013-04-15 04:34:00,54.0,51.0,-100.00,ESE,119,2.0,5.0,88,0.00,,,0.05,0.000000,,2013-04-15 08:34:00,
2013-04-15 04:43:00,54.0,51.0,-100.00,ESE,119,2.0,5.0,88,0.00,,,0.05,0.000000,,2013-04-15 08:43:00,
2013-04-15 04:52:00,54.0,51.0,-100.00,ESE,119,2.0,5.0,88,0.00,,,0.05,0.000000,,2013-04-15 08:52:00,
2013-04-15 05:03:00,54.0,51.0,-100.00,ESE,119,2.0,5.0,88,0.00,,,0.05,0.000000,,2013-04-15 09:03:00,
2013-04-15 05:33:00,54.0,51.0,-100.00,SSE,167,0.0,4.0,89,0.00,,,0.05,0.000000,,2013-04-15 09:33:00,
2013-04-15 05:43:00,54.0,51.0,-100.00,SSE,167,0.0,4.0,89,0.00,,,0.05,0.000000,,2013-04-15 09:43:00,
2013-04-15 05:53:00,54.0,51.0,-100.00,SSE,167,0.0,4.0,89,0.00,,,0.05,0.000000,,2013-04-15 09:53:00,
2013-04-15 06:03:00,54.0,51.0,-100.00,SSE,167,0.0,4.0,89,0.00,,,0.05,0.000000,,2013-04-15 10:03:00,
2013-04-15 06:33:00,54.0,51.0,-100.00,ESE,110,1.0,2.0,88,0.00,,,0.05,0.000000,,2013-04-15 10:33:00,
2013-04-15 06:42:00,54.0,51.0,-100.00,ESE,110,1.0,2.0,88,0.00,,,0.05,0.000000,,2013-04-15 10:42:00,
2013-04-15 06:53:00,54.0,51.0,-100.00,ESE,110,1.0,2.0,88,0.00,,,0.05,0.000000,,2013-04-15 10:53:00,
2013-04-15 07:03:00,54.0,51.0,-100.00,ESE,110,1.0,2.0,88,0.00,,,0.05,0.000000,,2013-04-15 11:03:00,
2013-04-15 07:33:00,54.0,51.0,-100.00,ESE,123,2.0,4.0,89,0.00,,,0.05,0.000000,,2013-04-15 11:33:00,
2013-04-15 07:44:00,54.0,51.0,-100.00,ESE,123,2.0,4.0,89,0.00,,,0.05,0.000000,,2013-04-15 11:44:00,
2013-04-15 07:54:00,54.0,51.0,-100.00,ESE,123,2.0,4.0,89,0.00,,,0.05,0.000000,,2013-04-15 11:54:00,
2013-04-15 08:04:00,54.0,51.0,-100.00,ESE,123,2.0,4.0,89,0.00,,,0.05,0.000000,,2013-04-15 12:04:00,
2013-04-15 08:34:00,55.0,52.0,-100.00,West,269,1.0,5.0,88,0.00,,,0.05,22.000000,,2013-04-15 12:34:00,
2013-04-15 08:43:00,55.0,52.0,-100.00,West,269,1.0,5.0,88,0.00,,,0.05,22.000000,,2013-04-15 12:43:00,
2013-04-15 08:53:00,55.0,52.0,-100.00,West,269,1.0,5.0,88,0.00,,,0.05,22.000000,,2013-04-15 12:53:00,
2013-04-15 09:04:00,55.0,52.0,-100.00,West,269,1.0,5.0,88,0.00,,,0.05,22.000000,,2013-04-15 13:04:00,
2013-04-15 09:05:00,57.0,53.0,-100.00,SE,134,3.0,4.0,86,0.00,,,0.05,111.000000,,2013-04-15 13:05:00,
2013-04-15 09:34:00,57.0,53.0,-100.00,SE,134,3.0,4.0,86,0.00,,,0.05,111.000000,,2013-04-15 13:34:00,
2013-04-15 09:43:00,57.0,53.0,-100.00,SE,134,3.0,4.0,86,0.00,,,0.05,111.000000,,2013-04-15 13:43:00,
2013-04-15 09:54:00,57.0,53.0,-100.00,SE,134,3.0,4.0,86,0.00,,,0.05,111.000000,,2013-04-15 13:54:00,
2013-04-15 10:34:00,61.0,54.0,-100.00,South,173,4.0,9.0,77,0.00,,,-99.99,309.000000,,2013-04-15 14:34:00,
2013-04-15 10:44:00,61.0,54.0,-100.00,South,173,4.0,9.0,77,0.00,,,-99.99,309.000000,,2013-04-15 14:44:00,
2013-04-15 10:55:00,61.0,54.0,-100.00,South,173,4.0,9.0,77,0.00,,,-99.99,309.000000,,2013-04-15 14:55:00,
2013-04-15 11:04:00,61.0,54.0,-100.00,South,173,4.0,9.0,77,0.00,,,-99.99,309.000000,,2013-04-15 15:04:00,
2013-04-15 11:05:00,63.0,51.0,-100.00,South,171,4.0,9.0,66,0.00,,,0.05,449.000000,,2013-04-15 15:05:00,
2013-04-15 11:37:00,63.0,51.0,-100.00,South,171,4.0,9.0,66,0.00,,,0.05,449.000000,,2013-04-15 15:37:00,
2013-04-15 11:45:00,63.0,51.0,-100.00,South,171,4.0,9.0,66,0.00,,,0.05,449.000000,,2013-04-15 15:45:00,
2013-04-15 11:55:00,63.0,51.0,-100.00,South,171,4.0,9.0,66,0.00,,,0.05,449.000000,,2013-04-15 15:55:00,
2013-04-15 12:34:00,66.0,52.0,-100.00,SW,219,6.0,10.0,60,0.00,,,0.05,683.000000,,2013-04-15 16:34:00,
2013-04-15 12:44:00,66.0,52.0,-100.00,SW,219,6.0,10.0,60,0.00,,,0.05,683.000000,,2013-04-15 16:44:00,
2013-04-15 12:54:00,66.0,52.0,-100.00,SW,219,6.0,10.0,60,0.00,,,0.05,683.000000,,2013-04-15 16:54:00,
2013-04-15 13:04:00,66.0,52.0,-100.00,SW,219,6.0,10.0,60,0.00,,,0.05,683.000000,,2013-04-15 17:04:00,
2013-04-15 13:33:00,70.0,53.0,-100.00,ENE,67,4.0,11.0,55,0.00,,,0.05,895.000000,,2013-04-15 17:33:00,
2013-04-15 13:43:00,70.0,53.0,-100.00,ENE,67,4.0,11.0,55,0.00,,,0.05,895.000000,,2013-04-15 17:43:00,
2013-04-15 13:53:00,70.0,53.0,-100.00,ENE,67,4.0,11.0,55,0.00,,,0.05,895.000000,,2013-04-15 17:53:00,
2013-04-15 14:03:00,70.0,53.0,-100.00,ENE,67,4.0,11.0,55,0.00,,,0.05,895.000000,,2013-04-15 18:03:00,
2013-04-15 14:33:00,72.0,52.0,-100.00,North,5,4.0,11.0,50,0.00,,,0.05,1045.000000,,2013-04-15 18:33:00,
2013-04-15 14:42:00,72.0,52.0,-100.00,North,5,4.0,11.0,50,0.00,,,0.05,1045.000000,,2013-04-15 18:42:00,
2013-04-15 14:52:00,72.0,52.0,-100.00,North,5,4.0,11.0,50,0.00,,,0.05,1045.000000,,2013-04-15 18:52:00,
2013-04-15 15:02:00,72.0,52.0,-100.00,North,5,4.0,11.0,50,0.00,,,0.05,1045.000000,,2013-04-15 19:02:00,
2013-04-15 15:39:00,75.0,53.0,-100.00,SSW,199,3.0,12.0,46,0.00,,,0.05,1005.000000,,2013-04-15 19:39:00,
2013-04-15 15:59:00,75.0,53.0,-100.00,SSW,199,3.0,12.0,46,0.00,,,0.05,1005.000000,,2013-04-15 19:59:00,
2013-04-15 16:02:00,75.0,53.0,-100.00,SSW,199,3.0,12.0,46,0.00,,,0.05,1005.000000,,2013-04-15 20:02:00,
2013-04-15 16:32:00,77.0,53.0,-100.00,SSE,152,5.0,13.0,43,0.00,,,0.04,903.000000,,2013-04-15 20:32:00,
2013-04-15 16:42:00,77.0,53.0,-100.00,SSE,152,5.0,13.0,43,0.00,,,0.04,903.000000,,2013-04-15 20:42:00,
2013-04-15 16:52:00,77.0,53.0,-100.00,SSE,152,5.0,13.0,43,0.00,,,0.04,903.000000,,2013-04-15 20:52:00,
2013-04-15 17:02:00,77.0,53.0,-100.00,SSE,152,5.0,13.0,43,0.00,,,0.04,903.000000,,2013-04-15 21:02:00,
2013-04-15 17:33:00,78.0,52.0,-100.00,ESE,102,5.0,14.0,40,0.00,,,0.03,734.000000,,2013-04-15 21:33:00,
2013-04-15 17:43:00,78.0,52.0,-100.00,ESE,102,5.0,14.0,40,0.00,,,0.03,734.000000,,2013-04-15 21:43:00,
2013-04-15 17:53:00,78.0,52.0,-100.00,ESE,102,5.0,14.0,40,0.00,,,0.03,734.000000,,2013-04-15 21:53:00,
2013-04-15 18:02:00,78.0,52.0,-100.00,ESE,102,5.0,14.0,40,0.00,,,0.03,734.000000,,2013-04-15 22:02:00,
2013-04-15 18:33:00,77.0,54.0,-100.00,SSE,164,8.0,15.0,45,0.00,,,0.03,532.000000,,2013-04-15 22:33:00,
2013-04-15 18:42:00,77.0,54.0,-100.00,SSE,164,8.0,15.0,45,0.00,,,0.03,532.000000,,2013-04-15 22:42:00,
2013-04-15 18:52:00,77.0,54.0,-100.00,SSE,164,8.0,15.0,45,0.00,,,0.03,532.000000,,2013-04-15 22:52:00,
2013-04-15 19:02:00,77.0,54.0,-100.00,SSE,164,8.0,15.0,45,0.00,,,0.03,532.000000,,2013-04-15 23:02:00,
2013-04-15 19:32:00,74.0,52.0,-100.00,SSE,167,10.0,15.0,47,0.00,,,0.03,294.000000,,2013-04-15 23:32:00,
2013-04-15 19:42:00,74.0,52.0,-100.00,SSE,167,10.0,15.0,47,0.00,,,0.03,294.000000,,2013-04-15 23:42:00,
2013-04-15 19:52:00,74.0,52.0,-100.00,SSE,167,10.0,15.0,47,0.00,,,0.03,294.000000,,2013-04-15 23:52:00,
2013-04-15 20:03:00,74.0,52.0,-100.00,SSE,167,10.0,15.0,47,0.00,,,0.03,294.000000,,2013-04-16 00:03:00,
2013-04-15 21:32:00,66.0,52.0,-100.00,SE,145,6.0,15.0,61,-99.99,,,0.02,1.000000,,2013-04-16 01:32:00,
2013-04-15 21:42:00,66.0,52.0,-100.00,SE,145,6.0,15.0,61,-99.99,,,0.02,1.000000,,2013-04-16 01:42:00,
2013-04-15 21:52:00,66.0,52.0,-100.00,SE,145,6.0,15.0,61,-99.99,,,0.02,1.000000,,2013-04-16 01:52:00,
2013-04-15 22:02:00,66.0,52.0,-100.00,SE,145,6.0,15.0,61,-99.99,,,0.02,1.000000,,2013-04-16 02:02:00,
2013-04-15 22:32:00,64.0,52.0,-100.00,SSE,159,4.0,12.0,64,0.00,,,0.00,0.000000,,2013-04-16 02:32:00,
2013-04-15 22:42:00,64.0,52.0,-100.00,SSE,159,4.0,12.0,64,0.00,,,0.00,0.000000,,2013-04-16 02:42:00,
2013-04-15 22:52:00,64.0,52.0,-100.00,SSE,159,4.0,12.0,64,0.00,,,0.00,0.000000,,2013-04-16 02:52:00,
2013-04-15 23:02:00,64.0,52.0,-100.00,SSE,159,4.0,12.0,64,0.00,,,0.00,0.000000,,2013-04-16 03:02:00,
2013-04-15 23:33:00,61.0,52.0,-100.00,SSE,156,2.0,6.0,71,0.00,,,0.00,0.000000,,2013-04-16 03:33:00,
2013-04-15 23:43:00,61.0,52.0,-100.00,SSE,156,2.0,6.0,71,0.00,,,0.00,0.000000,,2013-04-16 03:43:00,
2013-04-15 23:53:00,61.0,52.0,-100.00,SSE,156,2.0,6.0,71,0.00,,,0.00,0.000000,,2013-04-16 03:53:00,